Time;durP1;ratioP1;P1;durP2;ratioP2;P2;SDS_P1;SDS_P2;PMS_P1;PMS_P2;Temp;Humidity;BMP_temperature;BMP_pressure;BME280_temperature;BME280_humidity;BME280_pressure;Samples;Min_cycle;Max_cycle;Signal;HPM_P1;HPM_P2
2022/05/16 00:01:56;;;;;;;;;2.75;2.75;;;;;22.42;54.93;100830.66;5020676;28;45423;-72
2022/05/16 00:04:23;;;;;;;;;3.25;2.50;;;;;22.41;55.24;100839.81;5020091;28;45379;-72
2022/05/16 00:06:48;;;;;;;;;2.50;2.50;;;;;22.42;55.60;100855.13;5019924;28;46383;-72
2022/05/16 00:09:14;;;;;;;;;3.00;3.00;;;;;22.39;55.53;100858.97;5022520;28;45618;-72
2022/05/16 00:11:39;;;;;;;;;2.75;2.50;;;;;22.43;55.53;100879.50;5040367;28;45386;-72
2022/05/16 00:14:05;;;;;;;;;3.00;3.00;;;;;22.37;55.29;100871.84;5028463;28;45401;-72
2022/05/16 00:16:30;;;;;;;;;3.50;2.25;;;;;22.36;55.71;100878.25;5019914;28;46347;-72
2022/05/16 00:18:56;;;;;;;;;3.00;3.00;;;;;22.37;55.77;100867.25;5020018;28;45356;-72
2022/05/16 00:21:22;;;;;;;;;4.00;4.00;;;;;22.35;55.53;100857.47;5020047;28;45212;-71
2022/05/16 00:23:47;;;;;;;;;2.50;2.50;;;;;22.24;56.15;100835.72;5019654;28;45629;-71
2022/05/16 00:26:13;;;;;;;;;2.25;1.25;;;;;22.29;55.57;100833.53;5021033;28;45634;-72
2022/05/16 00:28:38;;;;;;;;;2.50;2.50;;;;;22.24;55.78;100830.28;5023317;28;45306;-72
2022/05/16 00:31:04;;;;;;;;;4.00;3.00;;;;;22.17;55.33;100830.75;5031594;28;45208;-72
2022/05/16 00:33:30;;;;;;;;;2.75;2.75;;;;;22.19;55.94;100849.66;5019941;28;45351;-71
2022/05/16 00:35:55;;;;;;;;;3.00;2.00;;;;;22.19;56.31;100861.41;5039496;28;45220;-72
2022/05/16 00:38:21;;;;;;;;;1.50;1.50;;;;;22.20;56.80;100857.72;5039471;28;45409;-71
2022/05/16 00:40:46;;;;;;;;;3.00;2.00;;;;;22.21;56.54;100859.41;5034101;28;45486;-72
2022/05/16 00:43:13;;;;;;;;;3.00;3.00;;;;;22.19;56.89;100861.41;5018438;28;45639;-71
2022/05/16 00:45:39;;;;;;;;;2.75;2.75;;;;;22.20;56.61;100851.38;5019775;28;45299;-72
2022/05/16 00:48:06;;;;;;;;;3.75;3.00;;;;;22.18;56.62;100846.06;5019656;28;45552;-72
2022/05/16 00:50:39;;;;;;;;;4.50;4.00;;;;;22.18;56.60;100856.09;5019919;28;45484;-72
2022/05/16 00:53:04;;;;;;;;;6.25;4.00;;;;;22.16;57.09;100855.34;5022814;28;45419;-72
2022/05/16 00:55:36;;;;;;;;;3.75;3.75;;;;;22.14;57.28;100836.44;5019672;28;45450;-72
2022/05/16 00:58:09;;;;;;;;;4.50;2.25;;;;;22.08;57.36;100831.47;5021165;28;45320;-71
2022/05/16 01:00:39;;;;;;;;;3.00;3.00;;;;;22.11;57.46;100831.25;5039606;28;45237;-71
2022/05/16 01:06:02;;;;;;;;;2.75;2.75;;;;;22.04;57.31;100826.44;5019182;28;45245;-71
2022/05/16 01:08:31;;;;;;;;;4.00;3.00;;;;;22.00;57.01;100828.50;5022690;28;45326;-72
2022/05/16 01:11:01;;;;;;;;;3.00;3.00;;;;;21.99;56.50;100818.63;5026185;28;45405;-72
2022/05/16 01:13:29;;;;;;;;;5.75;4.75;;;;;21.99;57.41;100819.50;5023593;28;45204;-72
2022/05/16 01:15:56;;;;;;;;;5.50;5.00;;;;;21.95;57.09;100825.28;5022569;28;46095;-71
2022/05/16 01:18:23;;;;;;;;;4.00;3.00;;;;;21.96;56.91;100835.19;5022799;28;45371;-72
2022/05/16 01:21:22;;;;;;;;;4.75;4.75;;;;;21.95;57.27;100830.72;5022774;28;45346;-72
2022/05/16 01:23:54;;;;;;;;;5.00;3.75;;;;;21.89;56.85;100826.66;5022440;28;45481;-72
2022/05/16 01:26:24;;;;;;;;;4.00;2.25;;;;;21.89;57.03;100825.78;5024322;28;45664;-72
2022/05/16 01:28:50;;;;;;;;;4.25;4.25;;;;;21.87;56.80;100833.16;5034623;28;45426;-72
2022/05/16 01:31:15;;;;;;;;;3.00;3.00;;;;;21.81;57.51;100813.66;5024743;28;45535;-72
2022/05/16 01:33:41;;;;;;;;;3.75;3.75;;;;;21.86;57.76;100824.16;5024024;28;45295;-72
2022/05/16 01:36:06;;;;;;;;;4.25;3.00;;;;;21.87;57.62;100835.88;5042131;28;45405;-72
2022/05/16 01:38:32;;;;;;;;;4.50;4.50;;;;;21.82;57.29;100836.28;5027005;28;45409;-71
2022/05/16 01:41:06;;;;;;;;;1.50;1.50;;;;;21.84;57.70;100850.59;5036011;28;45274;-72
2022/05/16 01:43:40;;;;;;;;;3.50;3.00;;;;;21.82;57.20;100864.31;5022553;28;45402;-71
2022/05/16 01:46:07;;;;;;;;;4.00;4.00;;;;;21.82;57.37;100858.00;5023280;28;45300;-71
2022/05/16 01:48:32;;;;;;;;;3.50;3.50;;;;;21.78;57.75;100845.63;5022254;28;45465;-72
2022/05/16 01:51:01;;;;;;;;;4.75;4.50;;;;;21.79;57.84;100844.66;5022335;28;45626;-71
2022/05/16 01:53:26;;;;;;;;;5.25;5.25;;;;;21.76;57.46;100861.19;5030493;28;45770;-72
2022/05/16 01:55:51;;;;;;;;;4.75;4.00;;;;;21.76;57.64;100858.47;5022345;28;46231;-71
2022/05/16 01:58:17;;;;;;;;;5.00;5.00;;;;;21.73;57.86;100858.72;5026452;28;45457;-71
2022/05/16 02:00:42;;;;;;;;;4.75;4.75;;;;;21.70;57.80;100857.13;5037694;28;45326;-71
2022/05/16 02:03:08;;;;;;;;;5.00;5.00;;;;;21.67;57.87;100851.03;5055496;28;45528;-71
2022/05/16 02:05:33;;;;;;;;;6.00;4.50;;;;;21.68;57.40;100856.34;5037554;28;47238;-71
2022/05/16 02:07:59;;;;;;;;;6.25;6.00;;;;;21.64;57.38;100844.84;5020433;28;45223;-71
2022/05/16 02:10:26;;;;;;;;;5.25;3.50;;;;;21.62;57.89;100846.84;5028936;28;45305;-71
2022/05/16 02:12:53;;;;;;;;;7.00;6.00;;;;;21.64;58.27;100854.88;5036026;28;45420;-72
2022/05/16 02:15:22;;;;;;;;;8.00;6.75;;;;;21.64;57.89;100857.59;5022423;28;45350;-72
2022/05/16 02:17:48;;;;;;;;;7.00;7.00;;;;;21.58;58.20;100858.91;5021231;28;45513;-71
2022/05/16 02:20:14;;;;;;;;;4.00;4.00;;;;;21.59;58.35;100866.09;5022121;28;45232;-71
2022/05/16 02:25:23;;;;;;;;;6.75;6.75;;;;;21.53;58.16;100852.97;5027213;28;45348;-71
2022/05/16 02:27:50;;;;;;;;;6.25;6.25;;;;;21.52;58.14;100853.06;5021449;28;45154;-71
2022/05/16 02:30:15;;;;;;;;;6.00;6.00;;;;;21.55;58.24;100867.31;5036435;28;45314;-71
2022/05/16 02:32:41;;;;;;;;;6.00;6.00;;;;;21.52;58.23;100861.22;5033879;28;45694;-72
2022/05/16 02:35:07;;;;;;;;;6.25;6.00;;;;;21.53;57.92;100857.53;5035197;28;46062;-71
2022/05/16 02:37:33;;;;;;;;;5.75;5.75;;;;;21.49;58.42;100856.06;5021504;28;45389;-71
2022/05/16 02:39:58;;;;;;;;;7.25;7.25;;;;;21.50;58.66;100866.81;5021805;28;45398;-71
2022/05/16 02:42:23;;;;;;;;;7.50;6.00;;;;;21.49;58.14;100856.06;5028238;28;45351;-71
2022/05/16 02:44:52;;;;;;;;;6.00;6.00;;;;;21.48;58.24;100859.75;5033150;28;46180;-71
2022/05/16 02:47:19;;;;;;;;;6.00;5.00;;;;;21.48;58.00;100859.75;5021584;28;45588;-71
2022/05/16 02:49:44;;;;;;;;;6.00;4.25;;;;;21.44;58.14;100869.94;5021619;28;45344;-71
2022/05/16 02:52:10;;;;;;;;;8.00;7.00;;;;;21.45;58.13;100863.50;5021621;28;45450;-71
2022/05/16 02:54:36;;;;;;;;;7.25;6.25;;;;;21.48;58.33;100870.59;5038183;28;45425;-71
2022/05/16 02:57:03;;;;;;;;;6.50;6.50;;;;;21.47;58.60;100875.19;5021412;28;45277;-71
2022/05/16 02:59:32;;;;;;;;;7.50;7.00;;;;;21.43;58.30;100863.66;5023871;28;45382;-71
2022/05/16 03:02:01;;;;;;;;;7.25;5.75;;;;;21.41;58.76;100853.88;5021577;28;45249;-71
2022/05/16 03:04:27;;;;;;;;;7.00;7.00;;;;;21.42;58.88;100864.63;5021137;28;45408;-71
2022/05/16 03:06:54;;;;;;;;;5.00;5.00;;;;;21.42;58.93;100856.47;5021220;28;45386;-71
2022/05/16 03:09:21;;;;;;;;;6.75;6.25;;;;;21.37;58.37;100850.53;5021066;28;45319;-71
2022/05/16 03:11:46;;;;;;;;;7.75;6.75;;;;;21.43;58.44;100860.06;5021351;28;45255;-71
2022/05/16 03:14:12;;;;;;;;;8.25;8.25;;;;;21.41;59.05;100860.16;5023217;28;45399;-71
2022/05/16 03:16:38;;;;;;;;;6.25;6.25;;;;;21.35;58.56;100851.63;5021148;28;45339;-71
2022/05/16 03:19:04;;;;;;;;;7.00;7.00;;;;;21.41;58.61;100871.03;5021210;28;45326;-71
2022/05/16 03:21:30;;;;;;;;;9.75;9.00;;;;;21.40;59.07;100880.19;5036345;28;45357;-71
2022/05/16 03:23:56;;;;;;;;;9.00;9.00;;;;;21.36;58.83;100878.66;5022276;28;46890;-71
2022/05/16 03:26:21;;;;;;;;;7.50;7.50;;;;;21.40;59.18;100876.56;5031136;28;45620;-71
2022/05/16 03:28:46;;;;;;;;;8.75;8.75;;;;;21.40;58.91;100896.47;5020810;28;45253;-71
2022/05/16 03:31:12;;;;;;;;;10.75;8.25;;;;;21.34;59.01;100880.63;5033935;28;45242;-71
2022/05/16 03:33:37;;;;;;;;;9.00;8.75;;;;;21.39;58.99;100883.88;5024997;28;45342;-71
2022/05/16 03:36:03;;;;;;;;;8.00;8.00;;;;;21.37;59.28;100885.84;5032921;28;45294;-72
2022/05/16 03:41:13;;;;;;;;;9.50;9.25;;;;;21.41;59.02;100908.19;5020653;28;45500;-71
2022/05/16 03:43:40;;;;;;;;;10.50;9.25;;;;;21.39;58.64;100902.00;5033894;28;45548;-71
2022/05/16 03:46:06;;;;;;;;;11.00;10.50;;;;;21.36;59.23;100903.09;5038408;28;45299;-71
2022/05/16 03:48:32;;;;;;;;;10.25;9.25;;;;;21.40;58.72;100920.91;5022327;28;45244;-71
2022/05/16 03:50:57;;;;;;;;;12.00;9.50;;;;;21.40;59.31;100928.16;5020541;28;45340;-71
2022/05/16 03:53:23;;;;;;;;;8.75;8.75;;;;;21.39;58.89;100926.44;5025822;28;45531;-71
2022/05/16 03:55:49;;;;;;;;;10.50;10.50;;;;;21.40;59.23;100925.44;5030560;28;45268;-71
2022/05/16 03:58:14;;;;;;;;;10.00;10.00;;;;;21.32;59.35;100930.59;5020536;28;45297;-71
2022/05/16 04:00:41;;;;;;;;;10.00;10.00;;;;;21.27;59.08;100926.38;5032024;28;45800;-71
2022/05/16 04:03:06;;;;;;;;;10.25;9.50;;;;;21.30;59.37;100930.72;5034525;28;46141;-71
2022/05/16 04:05:32;;;;;;;;;12.25;10.00;;;;;21.35;59.38;100941.22;5040354;28;45335;-71
2022/05/16 04:07:58;;;;;;;;;13.50;13.50;;;;;21.35;59.38;100947.53;5039520;28;45391;-71
2022/05/16 04:10:24;;;;;;;;;11.75;11.75;;;;;21.32;59.19;100944.16;5040166;28;45398;-71
2022/05/16 04:12:50;;;;;;;;;11.00;9.00;;;;;21.29;59.50;100946.13;5022094;28;47241;-71
2022/05/16 04:15:16;;;;;;;;;9.50;9.50;;;;;21.33;59.34;100948.63;5024416;28;45442;-71
2022/05/16 04:17:42;;;;;;;;;10.75;9.00;;;;;21.32;59.12;100947.75;5028598;28;45358;-71
2022/05/16 04:20:09;;;;;;;;;10.25;10.25;;;;;21.30;59.53;100949.75;5027671;28;45228;-71
2022/05/16 04:22:35;;;;;;;;;10.50;10.50;;;;;21.39;58.97;100961.75;5037870;28;47143;-71
2022/05/16 04:25:00;;;;;;;;;11.00;11.00;;;;;21.39;59.21;100967.19;5026487;28;45322;-70
2022/05/16 04:27:26;;;;;;;;;13.75;12.25;;;;;21.34;59.28;100962.09;5021159;28;45406;-71
2022/05/16 04:29:52;;;;;;;;;14.50;11.25;;;;;21.34;59.65;100970.22;5034767;28;45394;-71
2022/05/16 04:32:17;;;;;;;;;11.00;10.50;;;;;21.36;59.13;100981.84;5028588;28;46180;-71
2022/05/16 04:34:42;;;;;;;;;12.00;11.75;;;;;21.38;59.14;100984.44;5029700;28;45370;-70
2022/05/16 04:37:08;;;;;;;;;10.25;10.25;;;;;21.38;59.52;100992.59;5019598;28;45555;-71
2022/05/16 04:39:33;;;;;;;;;14.75;13.25;;;;;21.31;59.37;100980.47;5026254;28;45452;-71
2022/05/16 04:44:42;;;;;;;;;15.25;11.75;;;;;21.32;59.66;100999.34;5020009;28;45488;-71
2022/05/16 04:47:08;;;;;;;;;15.75;12.00;;;;;21.36;59.68;101013.56;5034646;28;45521;-71
2022/05/16 04:49:35;;;;;;;;;13.50;13.25;;;;;21.31;59.65;101013.03;5034865;28;45570;-71
2022/05/16 04:52:01;;;;;;;;;12.25;12.25;;;;;21.35;59.83;101026.28;5024744;28;45344;-71
2022/05/16 04:54:27;;;;;;;;;15.00;14.50;;;;;21.35;59.25;101036.25;5039134;28;45324;-71
2022/05/16 04:56:52;;;;;;;;;13.50;13.25;;;;;21.22;59.60;101034.44;5019969;28;45215;-71
2022/05/16 04:59:19;;;;;;;;;14.75;13.25;;;;;21.32;59.56;101063.63;5019713;28;45232;-71
2022/05/16 05:01:45;;;;;;;;;15.00;15.00;;;;;21.33;59.52;101068.94;5020228;28;45482;-71
2022/05/16 05:04:10;;;;;;;;;16.25;15.00;;;;;21.29;60.04;101076.44;5024317;28;45235;-71
2022/05/16 05:06:37;;;;;;;;;14.50;13.25;;;;;21.31;59.40;101075.47;5021086;28;45545;-71
2022/05/16 05:09:02;;;;;;;;;16.25;15.75;;;;;21.30;59.33;101077.34;5019227;28;45401;-71
2022/05/16 05:16:55;;;;;;;;;15.25;14.25;;;;;21.26;59.70;101067.66;5019709;28;45451;-71
2022/05/16 05:19:21;;;;;;;;;13.75;13.75;;;;;21.28;59.52;101069.31;5019301;28;45598;-71
2022/05/16 05:21:47;;;;;;;;;15.50;14.50;;;;;21.30;59.90;101074.63;5021908;28;45332;-71
2022/05/16 05:24:12;;;;;;;;;18.00;16.50;;;;;21.30;59.46;101069.19;5031750;28;45327;-71
2022/05/16 05:26:39;;;;;;;;;16.25;16.25;;;;;21.30;59.64;101074.63;5028908;28;45373;-71
2022/05/16 05:29:05;;;;;;;;;18.00;15.75;;;;;21.26;59.21;101079.38;5030826;28;45624;-71
2022/05/16 05:31:31;;;;;;;;;17.25;16.25;;;;;21.25;59.25;101090.34;5021871;28;45596;-71
2022/05/16 05:33:56;;;;;;;;;17.00;16.00;;;;;21.24;59.62;101094.06;5025199;28;45345;-71
2022/05/16 05:36:22;;;;;;;;;19.00;17.00;;;;;21.20;59.65;101101.56;5018368;28;45371;-71
2022/05/16 05:38:51;;;;;;;;;17.00;17.00;;;;;21.24;60.02;101107.63;5018714;28;45268;-71
2022/05/16 05:41:18;;;;;;;;;17.75;14.50;;;;;21.22;59.44;101121.31;5022910;28;45472;-72
2022/05/16 05:43:43;;;;;;;;;12.00;10.75;;;;;21.22;59.63;101117.75;5028220;28;45562;-73
2022/05/16 05:46:09;;;;;;;;;18.50;15.75;;;;;21.21;59.66;101127.72;5024818;28;45567;-73
2022/05/16 05:48:35;;;;;;;;;20.00;17.75;;;;;21.21;60.07;101135.84;5023094;28;45347;-73
2022/05/16 05:51:00;;;;;;;;;16.75;16.75;;;;;21.22;59.64;101143.03;5032662;28;45516;-73
2022/05/16 05:53:26;;;;;;;;;19.75;18.25;;;;;21.20;59.81;101144.09;5032248;28;45383;-73
2022/05/16 05:55:52;;;;;;;;;16.00;15.50;;;;;21.18;59.66;101146.94;5022144;28;45492;-74
2022/05/16 05:58:17;;;;;;;;;17.00;16.00;;;;;21.13;59.30;101143.66;5036339;28;45443;-74
2022/05/16 06:00:44;;;;;;;;;18.50;17.75;;;;;21.21;59.66;101162.16;5051104;28;47020;-74
2022/05/16 06:03:10;;;;;;;;;22.00;17.75;;;;;21.20;59.77;101160.41;5033450;28;45540;-74
2022/05/16 06:05:36;;;;;;;;;18.50;18.50;;;;;21.21;59.69;101168.44;5028329;28;45464;-74
2022/05/16 06:08:02;;;;;;;;;17.00;16.50;;;;;21.20;60.01;101165.81;5036822;28;45923;-74
2022/05/16 06:10:27;;;;;;;;;24.25;24.00;;;;;21.20;60.11;101166.72;5041669;28;45500;-75
2022/05/16 06:12:53;;;;;;;;;16.75;14.00;;;;;21.20;59.61;101172.16;5035685;28;45316;-74
2022/05/16 06:15:19;;;;;;;;;17.00;15.00;;;;;21.21;59.66;101170.28;5025157;28;45338;-73
2022/05/16 06:17:46;;;;;;;;;17.75;17.75;;;;;21.21;59.80;101182.00;5026764;28;45710;-75
2022/05/16 06:20:13;;;;;;;;;14.75;12.50;;;;;21.23;59.75;101184.63;5037694;28;45549;-74
2022/05/16 06:22:38;;;;;;;;;19.25;19.00;;;;;21.22;60.08;101178.31;5041244;28;45804;-74
2022/05/16 06:25:32;;;;;;;;;15.00;15.00;;;;;21.22;59.58;101183.75;5029034;28;45400;-75
2022/05/16 06:28:05;;;;;;;;;19.00;17.25;;;;;21.22;59.82;101189.19;5031367;28;45616;-75
2022/05/16 06:30:31;;;;;;;;;17.75;16.25;;;;;21.23;59.77;101199.09;5030330;28;45251;-74
2022/05/16 06:32:56;;;;;;;;;19.00;14.75;;;;;21.24;59.29;101200.81;5031259;28;45342;-75
2022/05/16 06:35:23;;;;;;;;;16.75;16.75;;;;;21.18;59.77;101198.50;5032966;28;45410;-74
2022/05/16 06:37:48;;;;;;;;;16.50;14.75;;;;;21.23;59.48;101209.06;5031081;28;45476;-75
2022/05/16 06:40:15;;;;;;;;;14.50;12.25;;;;;21.20;59.70;101212.88;5033061;28;45473;-75
2022/05/16 06:42:41;;;;;;;;;15.00;14.25;;;;;21.21;59.37;101214.59;5029027;28;45575;-75
2022/05/16 06:45:08;;;;;;;;;17.75;16.50;;;;;21.18;59.17;101203.94;5028998;28;45527;-74
2022/05/16 06:47:33;;;;;;;;;16.25;15.25;;;;;21.23;58.61;101226.22;5024477;28;45463;-75
2022/05/16 06:49:59;;;;;;;;;17.00;14.25;;;;;21.24;59.09;101232.53;5024177;28;46133;-74
2022/05/16 06:52:24;;;;;;;;;19.75;18.50;;;;;21.21;58.96;101233.59;5028543;28;45446;-73
2022/05/16 06:54:50;;;;;;;;;17.00;14.00;;;;;21.21;58.66;101239.03;5020610;28;46127;-73
2022/05/16 06:57:16;;;;;;;;;16.50;14.00;;;;;21.18;58.57;101244.66;5028025;28;45358;-73
2022/05/16 06:59:42;;;;;;;;;13.00;13.00;;;;;21.18;58.96;101252.81;5027777;28;46062;-73
2022/05/16 07:02:07;;;;;;;;;16.75;15.25;;;;;21.18;58.77;101260.94;5033833;28;45339;-73
2022/05/16 07:04:36;;;;;;;;;13.50;12.25;;;;;21.24;58.52;101270.53;5035866;28;45261;-73
2022/05/16 07:07:05;;;;;;;;;17.25;16.50;;;;;21.24;58.72;101278.69;5032070;28;45932;-73
2022/05/16 07:09:31;;;;;;;;;15.25;13.75;;;;;21.20;58.76;101288.00;5031272;28;46231;-75
2022/05/16 07:11:56;;;;;;;;;15.00;14.00;;;;;21.19;57.82;101281.69;5024779;28;45595;-74
2022/05/16 07:14:21;;;;;;;;;15.00;14.50;;;;;21.18;58.31;101288.09;5023780;28;45502;-75
2022/05/16 07:16:47;;;;;;;;;15.50;15.50;;;;;21.16;58.50;101284.63;5030892;28;45461;-75
2022/05/16 07:19:12;;;;;;;;;14.00;13.00;;;;;21.12;58.50;101283.09;5032979;28;45746;-74
2022/05/16 07:21:38;;;;;;;;;12.75;9.75;;;;;21.14;58.05;101291.16;5040628;28;45360;-75
2022/05/16 07:24:04;;;;;;;;;16.00;14.50;;;;;21.07;58.25;101279.84;5020597;28;45608;-73
2022/05/16 07:29:13;;;;;;;;;13.00;12.00;;;;;21.15;58.31;101303.72;5030103;28;45767;-74
2022/05/16 07:31:39;;;;;;;;;13.50;11.75;;;;;21.10;58.49;101304.91;5035902;28;45366;-74
2022/05/16 07:34:04;;;;;;;;;11.00;11.00;;;;;21.15;58.38;101311.88;5027752;28;45546;-74
2022/05/16 07:36:29;;;;;;;;;12.75;12.25;;;;;21.14;58.28;101321.88;5036288;28;45698;-74
2022/05/16 07:38:55;;;;;;;;;14.00;11.75;;;;;21.12;57.67;101320.22;5031985;28;46287;-74
2022/05/16 07:41:20;;;;;;;;;14.50;11.00;;;;;21.17;57.88;101324.38;5024724;28;45180;-74
2022/05/16 07:43:46;;;;;;;;;14.75;13.25;;;;;21.19;57.79;101327.00;5025247;28;45505;-74
2022/05/16 07:46:11;;;;;;;;;11.00;10.25;;;;;21.20;57.41;101317.84;5031246;28;45371;-74
2022/05/16 07:48:37;;;;;;;;;8.75;8.75;;;;;21.18;57.01;101315.25;5033150;28;47398;-74
2022/05/16 07:51:02;;;;;;;;;7.50;5.25;;;;;21.16;57.25;101311.75;5030012;28;45318;-74
2022/05/16 07:53:28;;;;;;;;;10.00;10.00;;;;;21.24;56.78;101322.13;5031356;28;45532;-74
2022/05/16 07:55:56;;;;;;;;;13.00;11.25;;;;;21.24;57.45;101324.81;5022155;28;45250;-74
2022/05/16 07:58:22;;;;;;;;;12.00;11.00;;;;;21.26;57.01;101333.72;5031332;28;45426;-74
2022/05/16 08:00:49;;;;;;;;;12.00;11.50;;;;;21.21;57.05;101335.88;5019564;28;45372;-74
2022/05/16 08:03:15;;;;;;;;;9.00;8.00;;;;;21.26;57.10;101341.88;5019656;28;45310;-74
2022/05/16 08:05:41;;;;;;;;;11.00;9.00;;;;;21.26;56.94;101344.59;5025756;28;45349;-74
2022/05/16 08:10:52;;;;;;;;;9.50;9.50;;;;;21.24;57.02;101335.69;5026343;28;45528;-74
2022/05/16 08:13:18;;;;;;;;;10.25;9.00;;;;;21.26;56.91;101347.31;5026108;28;46128;-79
2022/05/16 08:15:44;;;;;;;;;10.75;10.00;;;;;21.19;56.59;101332.41;5031910;28;45519;-74
2022/05/16 08:18:12;;;;;;;;;8.75;8.00;;;;;21.29;56.43;101347.97;5019310;28;45431;-74
2022/05/16 08:20:41;;;;;;;;;8.00;7.50;;;;;21.29;56.22;101345.25;5033868;28;45397;-75
2022/05/16 08:23:07;;;;;;;;;8.25;8.25;;;;;21.32;56.13;101346.00;5033241;28;45375;-74
2022/05/16 08:25:32;;;;;;;;;11.00;11.00;;;;;21.33;56.54;101345.91;5031920;28;45540;-74
2022/05/16 08:27:58;;;;;;;;;11.25;11.25;;;;;21.34;56.63;101354.94;5019084;28;45393;-75
2022/05/16 08:30:24;;;;;;;;;10.25;9.25;;;;;21.31;56.62;101353.28;5025046;28;45429;-75
2022/05/16 08:32:50;;;;;;;;;7.75;7.00;;;;;21.34;56.01;101363.09;5037646;28;45463;-75
2022/05/16 08:35:18;;;;;;;;;10.00;9.00;;;;;21.36;55.89;101366.56;5039379;28;45475;-75
2022/05/16 08:40:41;;;;;;;;;5.75;5.00;;;;;21.37;55.49;101377.31;5017871;28;45516;-71
2022/05/16 08:43:18;;;;;;;;;6.00;6.00;;;;;21.37;55.00;101373.75;5018788;28;45448;-72
2022/05/16 08:45:51;;;;;;;;;7.50;6.00;;;;;21.38;54.64;101373.63;5019283;28;45400;-73
2022/05/16 08:48:33;;;;;;;;;9.00;6.25;;;;;21.41;54.76;101373.41;5026282;28;46327;-73
2022/05/16 08:51:24;;;;;;;;;6.00;6.00;;;;;21.34;54.58;101363.94;5037651;28;45629;-69
2022/05/16 08:53:55;;;;;;;;;7.75;5.75;;;;;21.44;54.75;101375.94;5038154;28;45461;-70
2022/05/16 08:56:26;;;;;;;;;9.25;5.00;;;;;21.43;54.04;101374.19;5038780;28;45304;-71
2022/05/16 08:59:03;;;;;;;;;4.50;4.50;;;;;21.48;54.22;101382.03;5038763;28;45417;-68
2022/05/16 09:01:35;;;;;;;;;8.50;8.25;;;;;21.49;55.04;101380.22;5037738;28;45457;-66
2022/05/16 09:04:12;;;;;;;;;9.00;8.75;;;;;21.48;55.34;101381.19;5038860;28;45421;-67
2022/05/16 09:06:44;;;;;;;;;9.00;9.00;;;;;21.51;55.84;101386.41;5038708;28;45308;-68
2022/05/16 09:09:14;;;;;;;;;5.75;5.25;;;;;21.53;55.36;101396.19;5035188;28;45620;-67
2022/05/16 09:11:58;;;;;;;;;5.00;5.00;;;;;21.54;54.85;101407.94;5028397;28;45701;-67
2022/05/16 09:14:48;;;;;;;;;6.75;6.75;;;;;21.54;56.10;101407.94;5035547;28;45331;-67
2022/05/16 09:18:14;;;;;;;;;10.25;8.50;;;;;21.53;56.68;101412.47;5024943;28;45474;-66
2022/05/16 09:21:07;;;;;;;;;7.25;7.25;;;;;21.47;57.02;101412.91;4988800;28;45587;-67
2022/05/16 09:23:46;;;;;;;;;8.50;8.50;;;;;21.46;56.58;101417.41;5021956;28;45791;-67
2022/05/16 09:26:18;;;;;;;;;13.50;10.25;;;;;21.42;57.56;101426.75;5017936;28;45397;-67
2022/05/16 09:28:51;;;;;;;;;7.25;6.00;;;;;21.42;57.07;101417.75;5025943;28;45441;-67
2022/05/16 09:31:30;;;;;;;;;11.50;9.00;;;;;21.41;57.09;101421.44;5034220;28;46888;-67
2022/05/16 09:33:58;;;;;;;;;10.00;9.75;;;;;21.41;57.54;101425.00;5038358;28;45418;-67
2022/05/16 09:36:45;;;;;;;;;12.00;9.75;;;;;21.40;57.61;101417.84;5030277;28;45386;-67
2022/05/16 09:39:13;;;;;;;;;10.50;9.75;;;;;21.43;57.38;101430.34;5024145;28;45338;-67
2022/05/16 09:41:44;;;;;;;;;10.75;9.00;;;;;21.43;57.38;101431.25;5021808;28;45518;-67
2022/05/16 09:44:30;;;;;;;;;10.00;9.25;;;;;21.44;56.67;101429.38;5038421;28;45520;-66
2022/05/16 09:47:19;;;;;;;;;8.25;8.25;;;;;21.47;56.43;101431.94;5030119;28;45382;-67
2022/05/16 09:49:46;;;;;;;;;7.00;7.00;;;;;21.45;57.21;101428.38;5026057;28;45455;-67
2022/05/16 09:52:21;;;;;;;;;9.00;9.00;;;;;21.46;57.12;101436.44;5030384;28;46998;-67
2022/05/16 09:54:59;;;;;;;;;8.50;8.50;;;;;21.49;57.08;101435.41;5041293;28;45395;-67
2022/05/16 09:57:25;;;;;;;;;11.00;10.25;;;;;21.55;57.07;101454.00;5030957;28;45552;-67
2022/05/16 10:00:15;;;;;;;;;11.75;8.00;;;;;21.59;56.86;101449.25;5031673;28;45431;-67
2022/05/16 10:02:41;;;;;;;;;9.00;9.00;;;;;21.60;56.27;101451.84;5024735;28;45506;-67
2022/05/16 10:05:27;;;;;;;;;9.00;9.00;;;;;21.61;56.25;101450.00;5027552;28;45385;-67
2022/05/16 10:08:13;;;;;;;;;8.00;8.00;;;;;21.63;55.51;101451.66;5035793;28;45361;-67
2022/05/16 10:10:42;;;;;;;;;10.00;8.75;;;;;21.63;55.51;101457.09;5024494;28;45355;-67
2022/05/16 10:13:07;;;;;;;;;12.25;9.75;;;;;21.64;56.22;101447.09;5024173;28;46920;-67
2022/05/16 10:15:34;;;;;;;;;7.00;6.25;;;;;21.65;55.34;101459.66;5037148;28;45434;-67
2022/05/16 10:18:03;;;;;;;;;9.75;7.75;;;;;21.67;55.31;101463.19;5028859;28;45445;-67
2022/05/16 10:20:33;;;;;;;;;10.75;8.00;;;;;21.69;55.70;101463.06;5023929;28;45470;-67
2022/05/16 10:23:04;;;;;;;;;10.50;8.50;;;;;21.69;56.03;101463.94;5022781;28;45524;-67
2022/05/16 10:25:37;;;;;;;;;9.00;9.00;;;;;21.73;55.19;101461.88;5036387;28;45489;-67
2022/05/16 10:28:08;;;;;;;;;10.50;10.25;;;;;21.79;55.50;101465.03;5025045;28;45539;-66
2022/05/16 10:33:24;;;;;;;;;11.75;10.75;;;;;21.81;55.52;101459.50;5022589;28;45567;-67
2022/05/16 10:33:24;;;;;;;;;11.25;10.75;;;;;21.77;55.66;101450.69;5025945;28;45486;-68
2022/05/16 10:35:55;;;;;;;;;9.25;9.25;;;;;21.82;55.29;101475.72;5033498;28;45319;-66
2022/05/16 10:38:26;;;;;;;;;10.00;8.25;;;;;21.83;56.07;101466.59;5020709;28;45446;-67
2022/05/16 10:40:57;;;;;;;;;8.00;8.00;;;;;21.89;55.12;101468.00;5019459;28;45406;-69
2022/05/16 10:43:55;;;;;;;;;13.75;10.00;;;;;21.95;55.45;101466.69;5019658;28;45632;-68
2022/05/16 10:46:27;;;;;;;;;10.50;10.50;;;;;22.00;55.37;101473.59;5020843;28;45371;-69
2022/05/16 10:48:58;;;;;;;;;11.00;11.00;;;;;22.04;55.22;101466.09;5020529;28;45979;-68
2022/05/16 10:51:43;;;;;;;;;10.25;10.25;;;;;22.07;54.68;101460.44;5020279;28;45586;-69
2022/05/16 10:54:12;;;;;;;;;13.00;11.75;;;;;22.07;54.64;101457.72;5050567;28;48057;-69
2022/05/16 10:56:48;;;;;;;;;11.50;9.75;;;;;22.13;54.56;101462.72;5024598;28;45260;-69
2022/05/16 10:59:32;;;;;;;;;9.50;8.50;;;;;22.19;55.03;101459.56;5020906;28;45374;-69
2022/05/16 11:02:36;;;;;;;;;12.00;10.25;;;;;22.23;54.49;101460.22;5027681;28;46779;-68
2022/05/16 11:05:16;;;;;;;;;9.75;8.25;;;;;22.26;53.76;101468.16;5033627;28;45256;-68
2022/05/16 11:08:00;;;;;;;;;8.00;8.00;;;;;22.29;53.53;101467.13;5020887;28;45302;-68
2022/05/16 11:10:34;;;;;;;;;14.25;13.50;;;;;22.29;53.94;101459.81;5020770;28;45479;-68
2022/05/16 11:13:16;;;;;;;;;9.00;9.00;;;;;22.33;55.06;101455.03;5023915;28;45394;-68
2022/05/16 11:15:53;;;;;;;;;10.50;9.25;;;;;22.38;54.81;101442.84;5027658;28;45257;-68
2022/05/16 11:18:24;;;;;;;;;7.75;7.75;;;;;22.46;55.37;101450.47;5029653;28;45415;-68
2022/05/16 11:21:19;;;;;;;;;8.25;8.25;;;;;22.52;54.71;101451.88;5023391;28;45461;-68
2022/05/16 11:23:53;;;;;;;;;8.75;8.75;;;;;22.58;54.16;101448.72;5006568;28;45333;-68
2022/05/16 11:26:35;;;;;;;;;11.25;11.00;;;;;22.61;53.57;101458.53;5020914;28;46408;-68
2022/05/16 11:29:17;;;;;;;;;8.25;8.25;;;;;22.60;53.87;101449.47;5035021;28;45379;-68
2022/05/16 11:31:50;;;;;;;;;10.50;10.50;;;;;22.67;53.32;101453.50;5034910;28;45420;-69
2022/05/16 11:34:24;;;;;;;;;9.50;8.75;;;;;22.67;52.84;101452.63;5044313;28;45512;-68
2022/05/16 11:37:12;;;;;;;;;8.50;8.50;;;;;22.72;52.34;101447.72;5035772;28;46229;-68
2022/05/16 11:39:49;;;;;;;;;10.25;8.25;;;;;22.75;52.66;101444.75;5020608;28;45268;-68
2022/05/16 11:42:33;;;;;;;;;6.25;6.25;;;;;22.74;53.68;101441.19;5024587;28;45185;-68
2022/05/16 11:45:16;;;;;;;;;8.50;8.50;;;;;22.86;53.34;101439.41;5027653;28;45180;-69
2022/05/16 11:48:09;;;;;;;;;8.75;8.25;;;;;22.92;53.06;101446.25;5029257;28;45279;-69
2022/05/16 11:50:48;;;;;;;;;5.50;5.50;;;;;22.94;53.08;101445.16;5034534;28;45383;-68
2022/05/16 11:53:44;;;;;;;;;4.50;2.75;;;;;23.03;52.50;101437.31;5038824;28;45295;-68
2022/05/16 12:02:15;;;;;;;;;6.00;6.00;;;;;23.20;51.57;101431.50;5028836;28;45218;-68